createdAt,value
2023-09-17T04:45:49.754Z,15.40
2023-09-17T04:48:30.588Z,15.45
2023-09-17T04:50:58.892Z,15.46
2023-09-17T04:53:47.273Z,15.45
2023-09-17T04:56:37.653Z,15.46
2023-09-17T04:59:17.403Z,15.46
2023-09-17T05:02:09.752Z,15.47
2023-09-17T05:04:36.676Z,15.47
2023-09-17T05:07:04.240Z,15.44
2023-09-17T05:09:31.440Z,15.46
2023-09-17T05:11:58.749Z,15.48
2023-09-17T05:56:24.567Z,15.93
2023-09-17T05:58:53.458Z,16.00
2023-09-17T06:01:26.530Z,16.06
2023-09-17T06:03:55.798Z,16.15
2023-09-17T06:06:23.414Z,16.25
2023-09-17T06:08:52.515Z,16.34
2023-09-17T06:11:20.012Z,16.41
2023-09-17T06:14:24.188Z,16.45
2023-09-17T06:16:57.887Z,16.51
2023-09-17T09:02:30.115Z,21.57
2023-09-17T09:05:00.798Z,21.70
2023-09-17T09:07:31.548Z,21.86
2023-09-17T09:10:00.058Z,22.06
2023-09-17T09:12:27.337Z,22.19
2023-09-17T09:14:57.627Z,22.33
2023-09-17T09:17:24.212Z,22.47
2023-09-17T09:19:53.404Z,22.70
2023-09-17T11:28:59.174Z,25.69
2023-09-17T11:31:30.960Z,25.76
2023-09-17T11:34:02.179Z,25.83
2023-09-17T11:36:29.563Z,25.91
2023-09-17T11:39:04.320Z,25.97
2023-09-17T11:41:37.454Z,25.99
2023-09-17T11:44:07.751Z,26.02
2023-09-17T11:46:38.094Z,26.03
2023-09-17T11:49:20.134Z,26.06
2023-09-17T11:51:52.474Z,26.08
2023-09-17T11:54:23.952Z,26.08
2023-09-17T11:56:55.986Z,26.03
2023-09-17T11:59:36.393Z,25.95
2023-09-17T12:02:06.844Z,25.91
2023-09-17T12:04:41.065Z,25.89
2023-09-17T12:07:18.909Z,25.83
2023-09-17T12:10:01.072Z,25.71
2023-09-17T12:12:36.134Z,25.65
2023-09-17T12:15:09.987Z,25.54
2023-09-17T12:17:43.802Z,25.42
2023-09-17T12:20:34.683Z,25.33
2023-09-17T12:23:14.768Z,25.27
2023-09-17T12:25:47.566Z,25.24
2023-09-17T12:28:28.614Z,25.20
2023-09-17T12:58:19.974Z,24.91
2023-09-17T13:00:51.528Z,24.91
2023-09-17T13:03:18.761Z,24.94
2023-09-17T13:05:58.503Z,24.96
2023-09-17T13:08:27.553Z,24.95
2023-09-17T13:27:53.320Z,24.69
2023-09-17T13:30:21.361Z,24.64
2023-09-17T13:32:49.992Z,24.62
2023-09-17T13:35:25.818Z,24.60
2023-09-17T13:37:56.467Z,24.59
2023-09-17T13:40:26.894Z,24.58
2023-09-17T13:42:55.154Z,24.57
2023-09-17T13:45:25.710Z,24.59
2023-09-17T13:47:53.928Z,24.60
2023-09-17T13:50:28.842Z,24.60
2023-09-17T13:52:59.430Z,24.62
2023-09-17T13:55:30.365Z,24.62
2023-09-17T13:58:02.953Z,24.62
2023-09-17T14:00:31.123Z,24.63
2023-09-17T14:03:04.589Z,24.65
2023-09-17T14:05:37.733Z,24.67
2023-09-17T14:08:11.026Z,24.67
2023-09-17T14:10:44.789Z,24.68
2023-09-17T14:13:16.639Z,24.65
2023-09-17T14:15:51.047Z,24.67
2023-09-17T14:18:19.483Z,24.65
2023-09-17T14:20:47.635Z,24.64
2023-09-17T14:23:18.249Z,24.63
2023-09-17T14:25:48.834Z,24.62
2023-09-17T14:28:20.196Z,24.60
2023-09-17T14:30:48.969Z,24.60
2023-09-17T14:33:17.767Z,24.61
2023-09-17T14:35:50.501Z,24.60
2023-09-17T14:38:25.191Z,24.60
2023-09-17T14:40:53.469Z,24.61
2023-09-17T14:43:23.990Z,24.61
2023-09-17T14:45:51.995Z,24.60
2023-09-17T14:48:19.931Z,24.58
2023-09-17T14:50:48.007Z,24.57
2023-09-17T14:53:20.519Z,24.58
2023-09-17T14:55:49.647Z,24.57
2023-09-17T14:58:18.230Z,24.57
2023-09-17T15:00:46.785Z,24.57
2023-09-17T15:03:16.612Z,24.57
2023-09-17T15:05:44.880Z,24.56
2023-09-17T15:08:12.801Z,24.55
2023-09-17T15:10:45.568Z,24.55
2023-09-17T15:13:13.676Z,24.55
2023-09-17T15:15:41.643Z,24.54
2023-09-17T15:18:16.402Z,24.54
2023-09-17T15:20:50.391Z,24.52
2023-09-17T15:23:18.630Z,24.51
2023-09-17T15:25:50.091Z,24.48
2023-09-17T15:28:18.884Z,24.49
2023-09-17T15:30:51.061Z,24.47
2023-09-17T15:33:22.332Z,24.46
2023-09-17T15:35:52.751Z,24.45
2023-09-17T15:38:21.140Z,24.44
2023-09-17T15:40:53.165Z,24.43
2023-09-17T15:43:22.334Z,24.42
2023-09-17T15:45:50.263Z,24.40
2023-09-17T15:48:18.165Z,24.39
2023-09-17T15:50:53.235Z,24.38
2023-09-17T15:53:21.241Z,24.37
2023-09-17T15:55:49.170Z,24.37
2023-09-17T15:58:28.938Z,24.37
2023-09-17T16:01:02.219Z,24.36
2023-09-17T16:03:35.253Z,24.35
2023-09-17T16:06:08.384Z,24.34
2023-09-17T16:08:41.875Z,24.34
2023-09-17T16:11:10.168Z,24.34
2023-09-17T16:13:44.281Z,24.34
2023-09-17T16:16:12.317Z,24.33
2023-09-17T16:18:40.703Z,24.31
2023-09-17T16:21:11.243Z,24.30
2023-09-17T16:23:43.978Z,24.29
2023-09-17T16:26:12.172Z,24.30
2023-09-17T16:28:40.444Z,24.30
2023-09-17T16:31:10.777Z,24.32
2023-09-17T16:33:44.570Z,24.32
2023-09-17T17:29:40.309Z,23.30
2023-09-17T17:32:17.487Z,23.25
2023-09-17T17:34:45.746Z,23.21
2023-09-17T17:37:14.120Z,23.17
2023-09-17T17:39:47.832Z,23.12
2023-09-17T17:42:17.764Z,23.07
2023-09-17T17:44:50.528Z,23.01
2023-09-17T17:47:21.282Z,22.95
2023-09-17T17:49:57.153Z,22.90
2023-09-17T17:52:25.322Z,22.84
2023-09-17T17:54:56.128Z,22.79
2023-09-17T17:57:24.399Z,22.76
2023-09-17T17:59:52.507Z,22.72
2023-09-17T18:02:23.383Z,22.67
2023-09-17T18:04:53.680Z,22.62
2023-09-17T18:07:22.300Z,22.57
2023-09-17T18:09:52.712Z,22.55
2023-09-17T18:12:20.779Z,22.50
2023-09-17T18:14:58.770Z,22.48
2023-09-17T18:17:27.246Z,22.46
2023-09-17T18:20:00.155Z,22.42
2023-09-17T18:22:28.773Z,22.39
2023-09-17T18:24:57.040Z,22.35
2023-09-17T18:27:29.971Z,22.31
2023-09-17T18:29:58.657Z,22.28
2023-09-17T18:32:28.977Z,22.23
2023-09-17T18:34:57.012Z,22.19
2023-09-17T18:37:27.772Z,22.17
2023-09-17T18:39:57.148Z,22.12
2023-09-17T18:42:25.201Z,22.09
2023-09-17T18:44:58.327Z,22.06
2023-09-17T18:47:26.787Z,22.01
2023-09-17T18:49:58.078Z,21.98
2023-09-17T18:52:31.318Z,21.98
2023-09-17T18:55:02.166Z,21.95
2023-09-17T18:57:35.215Z,21.91
2023-09-17T19:00:05.818Z,21.86
2023-09-17T19:02:40.809Z,21.83
2023-09-17T19:05:13.834Z,21.81
2023-09-17T19:07:41.855Z,21.78
2023-09-17T19:10:16.356Z,21.75
2023-09-17T19:12:53.951Z,21.72
2023-09-17T19:15:21.963Z,21.70
2023-09-17T19:17:53.351Z,21.70
2023-09-17T19:20:21.556Z,21.69
2023-09-17T19:22:52.242Z,21.66
2023-09-17T19:25:22.423Z,21.61
2023-09-17T19:27:50.364Z,21.57
2023-09-17T19:30:20.927Z,21.50
2023-09-17T19:32:48.994Z,21.46
2023-09-17T19:35:17.330Z,21.42
2023-09-17T19:37:45.476Z,21.40
2023-09-17T19:40:13.859Z,21.36
2023-09-17T19:42:43.533Z,21.34
2023-09-17T19:45:12.450Z,21.32
2023-09-17T19:47:44.537Z,21.27
2023-09-17T19:50:13.048Z,21.22
2023-09-17T19:52:44.024Z,21.20
2023-09-17T19:55:16.871Z,21.17
2023-09-17T19:57:44.730Z,21.13
2023-09-17T20:00:14.085Z,21.09
2023-09-17T20:02:42.996Z,21.04
2023-09-17T20:05:13.122Z,21.02
2023-09-17T20:07:41.658Z,20.99
2023-09-17T20:10:16.969Z,20.96
2023-09-17T20:12:45.386Z,20.92
2023-09-17T20:15:17.137Z,20.89
2023-09-17T20:17:48.072Z,20.86
2023-09-17T20:20:18.394Z,20.83
2023-09-17T20:22:47.156Z,20.80
2023-09-17T20:25:22.431Z,20.80
2023-09-17T20:27:57.184Z,20.82
2023-09-17T20:30:27.930Z,20.82
2023-09-17T20:32:58.387Z,20.84
2023-09-17T20:35:26.515Z,20.85
2023-09-17T20:37:56.657Z,20.84
2023-09-17T20:40:24.671Z,20.79
2023-09-17T20:42:53.686Z,20.74
2023-09-17T20:45:24.215Z,20.68
2023-09-17T20:47:54.416Z,20.61
2023-09-17T20:50:22.693Z,20.56
2023-09-17T20:52:50.712Z,20.52
2023-09-17T20:55:21.473Z,20.50
2023-09-17T20:57:52.032Z,20.48
2023-09-17T21:00:22.354Z,20.45
2023-09-17T21:02:57.932Z,20.41
2023-09-17T21:05:26.733Z,20.36
2023-09-17T21:07:57.149Z,20.33
2023-09-17T21:10:29.971Z,20.29
2023-09-17T21:12:59.080Z,20.25
2023-09-17T21:15:27.231Z,20.21
2023-09-17T21:17:55.153Z,20.18
2023-09-17T21:20:23.459Z,20.15
2023-09-17T21:22:53.783Z,20.12
2023-09-17T21:25:26.746Z,20.09
2023-09-17T21:27:55.343Z,20.06
2023-09-17T21:30:23.939Z,20.03
2023-09-17T21:32:55.079Z,20.00
2023-09-17T21:35:23.365Z,19.97
2023-09-17T21:37:51.304Z,19.97
2023-09-17T21:40:19.665Z,19.95
2023-09-17T21:42:48.270Z,19.93
2023-09-17T21:45:17.750Z,19.90
2023-09-17T21:47:46.141Z,19.87
2023-09-17T21:50:14.605Z,19.85
2023-09-17T21:52:45.487Z,19.82
2023-09-17T21:55:13.981Z,19.79
2023-09-17T21:57:44.464Z,19.76
2023-09-17T22:00:22.887Z,19.74
2023-09-17T22:02:58.331Z,19.72
2023-09-17T22:05:30.560Z,19.68
2023-09-17T22:08:01.218Z,19.64
2023-09-17T22:10:29.330Z,19.60
2023-09-17T22:13:02.079Z,19.57
2023-09-17T22:15:30.013Z,19.54
2023-09-17T22:17:58.152Z,19.52
2023-09-17T22:20:26.274Z,19.49
2023-09-17T22:22:57.822Z,19.47
2023-09-17T22:25:29.161Z,19.45
2023-09-17T22:28:02.361Z,19.42
2023-09-17T22:30:35.139Z,19.38
2023-09-17T22:33:04.822Z,19.35
2023-09-17T22:35:33.063Z,19.32
2023-09-17T22:38:01.437Z,19.29
2023-09-17T22:40:31.062Z,19.28
2023-09-17T22:43:06.311Z,19.26
2023-09-17T22:45:34.185Z,19.25
2023-09-17T22:48:02.511Z,19.23
2023-09-17T22:50:30.655Z,19.22
2023-09-17T22:53:02.913Z,19.19
2023-09-17T22:55:53.713Z,19.17
2023-09-17T22:58:24.265Z,19.14
2023-09-17T23:01:01.622Z,19.10
2023-09-17T23:03:31.938Z,19.07
2023-09-17T23:06:02.259Z,19.06
2023-09-17T23:08:30.528Z,19.06
2023-09-17T23:11:04.497Z,19.04
2023-09-17T23:13:34.104Z,19.03
2023-09-17T23:16:05.470Z,19.00
2023-09-17T23:18:36.185Z,18.97
2023-09-17T23:21:06.838Z,18.93
2023-09-17T23:23:35.158Z,18.90
2023-09-17T23:26:04.875Z,18.88
2023-09-17T23:28:33.593Z,18.86
2023-09-17T23:31:04.785Z,18.83
2023-09-17T23:33:35.629Z,18.82
2023-09-17T23:36:06.105Z,18.82
2023-09-17T23:38:36.375Z,18.80
2023-09-17T23:41:09.678Z,18.81
2023-09-17T23:43:38.930Z,18.78
2023-09-17T23:46:07.045Z,18.77
2023-09-17T23:48:37.652Z,18.76
2023-09-17T23:51:08.177Z,18.76
2023-09-17T23:53:38.746Z,18.75
2023-09-17T23:56:09.416Z,18.74
2023-09-17T23:58:37.592Z,18.71
